sensor_id;sensor_type;location;lat;lon;timestamp;P1;durP1;ratioP1;P2;durP2;ratioP2
81306;SDS011;70775;50.846;3.224;2023-07-30T00:09:32;10.68;;;3.67;;
81306;SDS011;70775;50.846;3.224;2023-07-30T00:12:05;11.85;;;3.28;;
81306;SDS011;70775;50.846;3.224;2023-07-30T00:17:38;12.48;;;3.47;;
81306;SDS011;70775;50.846;3.224;2023-07-30T00:22:51;17.00;;;3.83;;
81306;SDS011;70775;50.846;3.224;2023-07-30T00:28:36;15.95;;;3.40;;
81306;SDS011;70775;50.846;3.224;2023-07-30T00:31:21;10.30;;;2.85;;
81306;SDS011;70775;50.846;3.224;2023-07-30T00:33:47;15.13;;;3.83;;
81306;SDS011;70775;50.846;3.224;2023-07-30T00:36:12;15.50;;;4.22;;
81306;SDS011;70775;50.846;3.224;2023-07-30T00:38:38;12.70;;;4.15;;
81306;SDS011;70775;50.846;3.224;2023-07-30T00:41:06;13.48;;;3.00;;
81306;SDS011;70775;50.846;3.224;2023-07-30T00:43:32;12.40;;;3.13;;
81306;SDS011;70775;50.846;3.224;2023-07-30T00:48:49;19.38;;;3.50;;
81306;SDS011;70775;50.846;3.224;2023-07-30T00:51:16;11.45;;;2.85;;
81306;SDS011;70775;50.846;3.224;2023-07-30T00:53:42;13.77;;;3.65;;
81306;SDS011;70775;50.846;3.224;2023-07-30T00:56:07;14.93;;;3.33;;
81306;SDS011;70775;50.846;3.224;2023-07-30T00:58:42;17.92;;;3.65;;
81306;SDS011;70775;50.846;3.224;2023-07-30T01:01:10;20.35;;;4.07;;
81306;SDS011;70775;50.846;3.224;2023-07-30T01:03:36;15.75;;;3.30;;
81306;SDS011;70775;50.846;3.224;2023-07-30T01:06:02;10.82;;;3.15;;
81306;SDS011;70775;50.846;3.224;2023-07-30T01:11:09;12.55;;;2.88;;
81306;SDS011;70775;50.846;3.224;2023-07-30T01:13:35;12.23;;;3.13;;
81306;SDS011;70775;50.846;3.224;2023-07-30T01:16:01;17.42;;;4.07;;
81306;SDS011;70775;50.846;3.224;2023-07-30T01:21:47;15.02;;;3.65;;
81306;SDS011;70775;50.846;3.224;2023-07-30T01:24:16;9.50;;;2.63;;
81306;SDS011;70775;50.846;3.224;2023-07-30T01:26:48;13.43;;;3.08;;
81306;SDS011;70775;50.846;3.224;2023-07-30T01:32:32;13.52;;;3.25;;
81306;SDS011;70775;50.846;3.224;2023-07-30T01:35:20;9.40;;;3.00;;
81306;SDS011;70775;50.846;3.224;2023-07-30T01:37:50;11.75;;;4.07;;
81306;SDS011;70775;50.846;3.224;2023-07-30T01:40:20;15.10;;;4.25;;
81306;SDS011;70775;50.846;3.224;2023-07-30T01:42:49;11.10;;;2.72;;
81306;SDS011;70775;50.846;3.224;2023-07-30T01:45:35;15.88;;;3.33;;
81306;SDS011;70775;50.846;3.224;2023-07-30T01:53:06;17.38;;;3.47;;
81306;SDS011;70775;50.846;3.224;2023-07-30T01:55:31;19.77;;;3.95;;
81306;SDS011;70775;50.846;3.224;2023-07-30T01:57:57;13.93;;;3.80;;
81306;SDS011;70775;50.846;3.224;2023-07-30T02:00:26;17.50;;;3.40;;
81306;SDS011;70775;50.846;3.224;2023-07-30T02:02:51;13.73;;;3.00;;
81306;SDS011;70775;50.846;3.224;2023-07-30T02:05:17;14.10;;;3.17;;
81306;SDS011;70775;50.846;3.224;2023-07-30T02:07:45;13.02;;;3.40;;
81306;SDS011;70775;50.846;3.224;2023-07-30T02:10:12;12.48;;;3.40;;
81306;SDS011;70775;50.846;3.224;2023-07-30T02:12:37;15.13;;;2.97;;
81306;SDS011;70775;50.846;3.224;2023-07-30T02:15:03;14.82;;;3.30;;
81306;SDS011;70775;50.846;3.224;2023-07-30T02:20:50;16.98;;;3.20;;
81306;SDS011;70775;50.846;3.224;2023-07-30T02:23:16;19.05;;;3.15;;
81306;SDS011;70775;50.846;3.224;2023-07-30T02:25:41;12.57;;;2.97;;
81306;SDS011;70775;50.846;3.224;2023-07-30T02:28:10;17.98;;;3.75;;
81306;SDS011;70775;50.846;3.224;2023-07-30T02:30:36;17.42;;;3.47;;
81306;SDS011;70775;50.846;3.224;2023-07-30T02:33:01;13.63;;;3.10;;
81306;SDS011;70775;50.846;3.224;2023-07-30T02:35:27;15.25;;;3.60;;
81306;SDS011;70775;50.846;3.224;2023-07-30T02:37:53;11.55;;;3.50;;
81306;SDS011;70775;50.846;3.224;2023-07-30T02:40:18;14.75;;;2.83;;
81306;SDS011;70775;50.846;3.224;2023-07-30T02:42:47;18.45;;;3.95;;
81306;SDS011;70775;50.846;3.224;2023-07-30T02:45:12;16.08;;;3.35;;
81306;SDS011;70775;50.846;3.224;2023-07-30T02:47:38;15.82;;;3.28;;
81306;SDS011;70775;50.846;3.224;2023-07-30T02:50:04;14.10;;;3.13;;
81306;SDS011;70775;50.846;3.224;2023-07-30T02:52:32;16.05;;;3.97;;
81306;SDS011;70775;50.846;3.224;2023-07-30T02:55:01;13.80;;;3.30;;
81306;SDS011;70775;50.846;3.224;2023-07-30T02:57:29;17.45;;;3.28;;
81306;SDS011;70775;50.846;3.224;2023-07-30T02:59:55;22.67;;;3.85;;
81306;SDS011;70775;50.846;3.224;2023-07-30T03:02:23;13.38;;;3.45;;
81306;SDS011;70775;50.846;3.224;2023-07-30T03:04:51;13.05;;;3.15;;
81306;SDS011;70775;50.846;3.224;2023-07-30T03:07:17;16.02;;;3.30;;
81306;SDS011;70775;50.846;3.224;2023-07-30T03:09:43;15.73;;;3.28;;
81306;SDS011;70775;50.846;3.224;2023-07-30T03:12:09;11.60;;;2.90;;
81306;SDS011;70775;50.846;3.224;2023-07-30T03:17:53;18.52;;;4.32;;
81306;SDS011;70775;50.846;3.224;2023-07-30T03:20:24;16.20;;;3.55;;
81306;SDS011;70775;50.846;3.224;2023-07-30T03:23:04;14.48;;;3.60;;
81306;SDS011;70775;50.846;3.224;2023-07-30T03:28:07;16.92;;;3.80;;
81306;SDS011;70775;50.846;3.224;2023-07-30T03:33:03;13.90;;;3.28;;
81306;SDS011;70775;50.846;3.224;2023-07-30T03:35:29;15.88;;;3.80;;
81306;SDS011;70775;50.846;3.224;2023-07-30T03:37:54;15.13;;;3.30;;
81306;SDS011;70775;50.846;3.224;2023-07-30T03:40:20;17.13;;;4.28;;
81306;SDS011;70775;50.846;3.224;2023-07-30T03:42:46;19.30;;;4.03;;
81306;SDS011;70775;50.846;3.224;2023-07-30T03:45:11;13.13;;;3.33;;
81306;SDS011;70775;50.846;3.224;2023-07-30T03:47:37;15.15;;;3.50;;
81306;SDS011;70775;50.846;3.224;2023-07-30T03:50:03;17.85;;;3.78;;
81306;SDS011;70775;50.846;3.224;2023-07-30T03:52:29;13.82;;;3.78;;
81306;SDS011;70775;50.846;3.224;2023-07-30T03:54:54;20.23;;;3.83;;
81306;SDS011;70775;50.846;3.224;2023-07-30T03:57:20;19.88;;;4.28;;
81306;SDS011;70775;50.846;3.224;2023-07-30T03:59:45;17.52;;;4.00;;
81306;SDS011;70775;50.846;3.224;2023-07-30T04:04:52;16.23;;;4.18;;
81306;SDS011;70775;50.846;3.224;2023-07-30T04:07:18;15.75;;;3.65;;
81306;SDS011;70775;50.846;3.224;2023-07-30T04:10:02;27.95;;;5.65;;
81306;SDS011;70775;50.846;3.224;2023-07-30T04:15:19;15.07;;;3.40;;
81306;SDS011;70775;50.846;3.224;2023-07-30T04:17:44;17.55;;;3.92;;
81306;SDS011;70775;50.846;3.224;2023-07-30T04:20:10;27.30;;;4.97;;
81306;SDS011;70775;50.846;3.224;2023-07-30T04:22:36;19.15;;;4.32;;
81306;SDS011;70775;50.846;3.224;2023-07-30T04:28:00;18.73;;;3.92;;
81306;SDS011;70775;50.846;3.224;2023-07-30T04:30:26;18.52;;;3.92;;
81306;SDS011;70775;50.846;3.224;2023-07-30T04:32:51;19.95;;;4.13;;
81306;SDS011;70775;50.846;3.224;2023-07-30T04:35:35;13.60;;;3.92;;
81306;SDS011;70775;50.846;3.224;2023-07-30T04:38:01;16.25;;;4.80;;
81306;SDS011;70775;50.846;3.224;2023-07-30T04:40:26;22.83;;;4.18;;
81306;SDS011;70775;50.846;3.224;2023-07-30T04:42:56;18.92;;;3.58;;
81306;SDS011;70775;50.846;3.224;2023-07-30T04:45:24;17.25;;;3.95;;
81306;SDS011;70775;50.846;3.224;2023-07-30T04:47:50;16.67;;;3.40;;
81306;SDS011;70775;50.846;3.224;2023-07-30T04:55:38;16.42;;;4.20;;
81306;SDS011;70775;50.846;3.224;2023-07-30T04:58:04;13.50;;;3.83;;
81306;SDS011;70775;50.846;3.224;2023-07-30T05:00:30;16.20;;;3.65;;
81306;SDS011;70775;50.846;3.224;2023-07-30T05:02:55;18.20;;;3.83;;
81306;SDS011;70775;50.846;3.224;2023-07-30T05:05:21;17.85;;;3.70;;
81306;SDS011;70775;50.846;3.224;2023-07-30T05:07:46;18.98;;;4.32;;
81306;SDS011;70775;50.846;3.224;2023-07-30T05:10:12;19.58;;;3.95;;
81306;SDS011;70775;50.846;3.224;2023-07-30T05:12:38;20.02;;;4.40;;
81306;SDS011;70775;50.846;3.224;2023-07-30T05:15:10;20.02;;;3.63;;
81306;SDS011;70775;50.846;3.224;2023-07-30T05:17:45;16.58;;;3.95;;
81306;SDS011;70775;50.846;3.224;2023-07-30T05:20:11;20.30;;;5.07;;
81306;SDS011;70775;50.846;3.224;2023-07-30T05:22:36;16.27;;;3.67;;
81306;SDS011;70775;50.846;3.224;2023-07-30T05:25:19;17.35;;;3.80;;
81306;SDS011;70775;50.846;3.224;2023-07-30T05:27:45;15.73;;;3.85;;
81306;SDS011;70775;50.846;3.224;2023-07-30T05:30:11;13.95;;;3.85;;
81306;SDS011;70775;50.846;3.224;2023-07-30T05:32:36;22.25;;;4.22;;
81306;SDS011;70775;50.846;3.224;2023-07-30T05:38:06;19.23;;;3.70;;
81306;SDS011;70775;50.846;3.224;2023-07-30T05:40:32;11.55;;;3.40;;
81306;SDS011;70775;50.846;3.224;2023-07-30T05:43:04;15.77;;;3.85;;
81306;SDS011;70775;50.846;3.224;2023-07-30T05:45:30;20.35;;;3.92;;
81306;SDS011;70775;50.846;3.224;2023-07-30T05:47:58;16.77;;;3.70;;
81306;SDS011;70775;50.846;3.224;2023-07-30T05:50:26;16.45;;;4.50;;
81306;SDS011;70775;50.846;3.224;2023-07-30T05:52:57;14.93;;;4.07;;
81306;SDS011;70775;50.846;3.224;2023-07-30T05:55:23;16.42;;;3.92;;
81306;SDS011;70775;50.846;3.224;2023-07-30T05:57:51;14.80;;;3.30;;
81306;SDS011;70775;50.846;3.224;2023-07-30T06:00:28;15.77;;;3.60;;
81306;SDS011;70775;50.846;3.224;2023-07-30T06:02:54;17.77;;;3.72;;
81306;SDS011;70775;50.846;3.224;2023-07-30T06:05:22;14.60;;;3.60;;
81306;SDS011;70775;50.846;3.224;2023-07-30T06:07:48;21.40;;;3.65;;
81306;SDS011;70775;50.846;3.224;2023-07-30T06:13:17;17.13;;;4.50;;
81306;SDS011;70775;50.846;3.224;2023-07-30T06:15:59;17.42;;;3.63;;
81306;SDS011;70775;50.846;3.224;2023-07-30T06:18:24;14.27;;;3.58;;
81306;SDS011;70775;50.846;3.224;2023-07-30T06:20:53;12.98;;;4.20;;
81306;SDS011;70775;50.846;3.224;2023-07-30T06:26:10;18.80;;;4.50;;
81306;SDS011;70775;50.846;3.224;2023-07-30T06:28:36;11.75;;;3.33;;
81306;SDS011;70775;50.846;3.224;2023-07-30T06:31:02;16.55;;;3.95;;
81306;SDS011;70775;50.846;3.224;2023-07-30T06:33:28;17.08;;;3.25;;
81306;SDS011;70775;50.846;3.224;2023-07-30T06:35:53;16.55;;;3.67;;
81306;SDS011;70775;50.846;3.224;2023-07-30T06:38:19;20.70;;;3.85;;
81306;SDS011;70775;50.846;3.224;2023-07-30T06:40:44;12.75;;;3.17;;
81306;SDS011;70775;50.846;3.224;2023-07-30T06:45:53;17.40;;;3.08;;
81306;SDS011;70775;50.846;3.224;2023-07-30T06:48:19;13.68;;;3.55;;
81306;SDS011;70775;50.846;3.224;2023-07-30T06:50:45;14.18;;;2.97;;
81306;SDS011;70775;50.846;3.224;2023-07-30T06:53:11;20.25;;;3.35;;
81306;SDS011;70775;50.846;3.224;2023-07-30T06:58:39;15.02;;;4.45;;
81306;SDS011;70775;50.846;3.224;2023-07-30T07:06:50;18.80;;;4.60;;
81306;SDS011;70775;50.846;3.224;2023-07-30T07:09:15;15.27;;;3.40;;
81306;SDS011;70775;50.846;3.224;2023-07-30T07:11:41;12.63;;;3.85;;
81306;SDS011;70775;50.846;3.224;2023-07-30T07:14:06;16.02;;;2.90;;
81306;SDS011;70775;50.846;3.224;2023-07-30T07:16:32;15.32;;;3.53;;
81306;SDS011;70775;50.846;3.224;2023-07-30T07:18:58;18.17;;;3.55;;
81306;SDS011;70775;50.846;3.224;2023-07-30T07:21:31;12.68;;;3.28;;
81306;SDS011;70775;50.846;3.224;2023-07-30T07:30:09;18.67;;;4.47;;
81306;SDS011;70775;50.846;3.224;2023-07-30T07:32:35;14.10;;;3.60;;
81306;SDS011;70775;50.846;3.224;2023-07-30T07:35:03;11.43;;;3.35;;
81306;SDS011;70775;50.846;3.224;2023-07-30T07:37:31;12.13;;;3.85;;
81306;SDS011;70775;50.846;3.224;2023-07-30T07:40:12;12.93;;;3.53;;
81306;SDS011;70775;50.846;3.224;2023-07-30T07:42:38;14.20;;;3.55;;
81306;SDS011;70775;50.846;3.224;2023-07-30T07:45:05;12.15;;;3.42;;
81306;SDS011;70775;50.846;3.224;2023-07-30T07:47:32;12.57;;;3.22;;
81306;SDS011;70775;50.846;3.224;2023-07-30T07:49:58;11.45;;;3.08;;
81306;SDS011;70775;50.846;3.224;2023-07-30T07:55:37;16.85;;;3.70;;
81306;SDS011;70775;50.846;3.224;2023-07-30T07:58:02;11.60;;;2.65;;
81306;SDS011;70775;50.846;3.224;2023-07-30T08:00:28;12.18;;;2.53;;
81306;SDS011;70775;50.846;3.224;2023-07-30T08:05:45;8.68;;;2.53;;
81306;SDS011;70775;50.846;3.224;2023-07-30T08:08:11;11.45;;;2.70;;
81306;SDS011;70775;50.846;3.224;2023-07-30T08:10:40;11.68;;;2.92;;
81306;SDS011;70775;50.846;3.224;2023-07-30T08:13:12;10.02;;;2.50;;
81306;SDS011;70775;50.846;3.224;2023-07-30T08:15:38;11.18;;;3.25;;
81306;SDS011;70775;50.846;3.224;2023-07-30T08:21:01;11.00;;;2.63;;
81306;SDS011;70775;50.846;3.224;2023-07-30T08:23:33;11.10;;;2.92;;
81306;SDS011;70775;50.846;3.224;2023-07-30T08:28:56;8.82;;;2.03;;
81306;SDS011;70775;50.846;3.224;2023-07-30T08:31:22;9.38;;;2.42;;
81306;SDS011;70775;50.846;3.224;2023-07-30T08:33:56;4.82;;;1.73;;
81306;SDS011;70775;50.846;3.224;2023-07-30T08:36:22;10.48;;;2.30;;
81306;SDS011;70775;50.846;3.224;2023-07-30T08:38:48;9.68;;;2.45;;
81306;SDS011;70775;50.846;3.224;2023-07-30T08:41:24;9.90;;;2.13;;
81306;SDS011;70775;50.846;3.224;2023-07-30T08:43:50;10.68;;;2.20;;
81306;SDS011;70775;50.846;3.224;2023-07-30T08:46:17;9.27;;;2.03;;
81306;SDS011;70775;50.846;3.224;2023-07-30T08:48:43;10.45;;;2.40;;
81306;SDS011;70775;50.846;3.224;2023-07-30T08:51:09;8.18;;;2.10;;
81306;SDS011;70775;50.846;3.224;2023-07-30T08:53:36;13.25;;;2.00;;
81306;SDS011;70775;50.846;3.224;2023-07-30T08:56:02;7.53;;;1.85;;
81306;SDS011;70775;50.846;3.224;2023-07-30T08:58:32;8.73;;;1.98;;
81306;SDS011;70775;50.846;3.224;2023-07-30T09:00:59;8.77;;;2.47;;
81306;SDS011;70775;50.846;3.224;2023-07-30T09:03:32;8.88;;;2.33;;
81306;SDS011;70775;50.846;3.224;2023-07-30T09:06:02;12.63;;;2.08;;
81306;SDS011;70775;50.846;3.224;2023-07-30T09:08:28;9.02;;;2.13;;
81306;SDS011;70775;50.846;3.224;2023-07-30T09:10:55;7.28;;;1.60;;
81306;SDS011;70775;50.846;3.224;2023-07-30T09:16:24;5.75;;;1.90;;
81306;SDS011;70775;50.846;3.224;2023-07-30T09:18:51;7.15;;;1.63;;
81306;SDS011;70775;50.846;3.224;2023-07-30T09:24:07;6.75;;;1.65;;
81306;SDS011;70775;50.846;3.224;2023-07-30T09:26:39;5.13;;;1.20;;
81306;SDS011;70775;50.846;3.224;2023-07-30T09:29:10;8.07;;;1.70;;
81306;SDS011;70775;50.846;3.224;2023-07-30T09:31:45;4.07;;;1.63;;
81306;SDS011;70775;50.846;3.224;2023-07-30T09:34:16;10.18;;;1.83;;
81306;SDS011;70775;50.846;3.224;2023-07-30T09:36:44;9.60;;;1.50;;
81306;SDS011;70775;50.846;3.224;2023-07-30T09:39:17;7.38;;;1.27;;
81306;SDS011;70775;50.846;3.224;2023-07-30T09:41:44;5.93;;;1.42;;
81306;SDS011;70775;50.846;3.224;2023-07-30T09:44:11;6.60;;;1.67;;
81306;SDS011;70775;50.846;3.224;2023-07-30T09:46:44;5.40;;;1.60;;
81306;SDS011;70775;50.846;3.224;2023-07-30T09:52:50;7.90;;;1.50;;
81306;SDS011;70775;50.846;3.224;2023-07-30T09:55:24;7.25;;;1.88;;
81306;SDS011;70775;50.846;3.224;2023-07-30T10:00:49;7.28;;;1.77;;
81306;SDS011;70775;50.846;3.224;2023-07-30T10:06:36;4.80;;;1.33;;
81306;SDS011;70775;50.846;3.224;2023-07-30T10:09:06;7.50;;;1.52;;
81306;SDS011;70775;50.846;3.224;2023-07-30T10:11:34;5.85;;;1.88;;
81306;SDS011;70775;50.846;3.224;2023-07-30T10:14:25;5.78;;;1.75;;
81306;SDS011;70775;50.846;3.224;2023-07-30T10:16:55;8.65;;;1.88;;
81306;SDS011;70775;50.846;3.224;2023-07-30T10:19:26;5.35;;;1.75;;
81306;SDS011;70775;50.846;3.224;2023-07-30T10:27:24;5.80;;;1.60;;
81306;SDS011;70775;50.846;3.224;2023-07-30T10:33:01;7.07;;;1.75;;
81306;SDS011;70775;50.846;3.224;2023-07-30T10:35:52;9.82;;;1.65;;
81306;SDS011;70775;50.846;3.224;2023-07-30T10:38:22;4.63;;;1.23;;
81306;SDS011;70775;50.846;3.224;2023-07-30T10:43:33;2.70;;;1.10;;
81306;SDS011;70775;50.846;3.224;2023-07-30T10:46:11;9.95;;;2.00;;
81306;SDS011;70775;50.846;3.224;2023-07-30T10:48:41;6.93;;;1.42;;
81306;SDS011;70775;50.846;3.224;2023-07-30T10:51:09;4.50;;;1.60;;
81306;SDS011;70775;50.846;3.224;2023-07-30T10:53:42;8.18;;;1.58;;
81306;SDS011;70775;50.846;3.224;2023-07-30T10:56:08;7.03;;;1.63;;
81306;SDS011;70775;50.846;3.224;2023-07-30T10:58:35;8.93;;;1.40;;
81306;SDS011;70775;50.846;3.224;2023-07-30T11:01:02;4.90;;;1.50;;
81306;SDS011;70775;50.846;3.224;2023-07-30T11:03:32;6.13;;;1.30;;
81306;SDS011;70775;50.846;3.224;2023-07-30T11:05:59;6.60;;;1.75;;
81306;SDS011;70775;50.846;3.224;2023-07-30T11:08:32;4.95;;;1.52;;
81306;SDS011;70775;50.846;3.224;2023-07-30T11:11:03;5.93;;;1.55;;
81306;SDS011;70775;50.846;3.224;2023-07-30T11:13:30;4.88;;;1.23;;
81306;SDS011;70775;50.846;3.224;2023-07-30T11:16:06;6.63;;;1.40;;
81306;SDS011;70775;50.846;3.224;2023-07-30T11:18:32;5.65;;;1.60;;
81306;SDS011;70775;50.846;3.224;2023-07-30T11:21:05;3.33;;;1.08;;
81306;SDS011;70775;50.846;3.224;2023-07-30T11:23:36;3.05;;;1.13;;
81306;SDS011;70775;50.846;3.224;2023-07-30T11:26:03;6.60;;;2.13;;
81306;SDS011;70775;50.846;3.224;2023-07-30T11:28:34;3.33;;;1.52;;
81306;SDS011;70775;50.846;3.224;2023-07-30T11:31:11;5.18;;;1.33;;
81306;SDS011;70775;50.846;3.224;2023-07-30T11:33:42;6.95;;;1.60;;
81306;SDS011;70775;50.846;3.224;2023-07-30T11:36:10;6.30;;;1.55;;
81306;SDS011;70775;50.846;3.224;2023-07-30T11:38:38;4.68;;;1.90;;
81306;SDS011;70775;50.846;3.224;2023-07-30T11:41:11;5.82;;;1.35;;
81306;SDS011;70775;50.846;3.224;2023-07-30T11:48:33;6.38;;;1.92;;
81306;SDS011;70775;50.846;3.224;2023-07-30T11:51:00;8.63;;;1.95;;
81306;SDS011;70775;50.846;3.224;2023-07-30T11:58:45;5.25;;;2.08;;
81306;SDS011;70775;50.846;3.224;2023-07-30T12:01:12;4.30;;;1.58;;
81306;SDS011;70775;50.846;3.224;2023-07-30T12:03:38;6.18;;;2.15;;
81306;SDS011;70775;50.846;3.224;2023-07-30T12:06:07;7.68;;;2.03;;
81306;SDS011;70775;50.846;3.224;2023-07-30T12:08:34;3.25;;;1.55;;
81306;SDS011;70775;50.846;3.224;2023-07-30T12:11:04;5.68;;;1.60;;
81306;SDS011;70775;50.846;3.224;2023-07-30T12:13:31;7.40;;;1.95;;
81306;SDS011;70775;50.846;3.224;2023-07-30T12:15:57;5.47;;;1.70;;
81306;SDS011;70775;50.846;3.224;2023-07-30T12:18:24;5.88;;;1.85;;
81306;SDS011;70775;50.846;3.224;2023-07-30T12:20:59;6.00;;;2.22;;
81306;SDS011;70775;50.846;3.224;2023-07-30T12:23:25;9.10;;;2.42;;
81306;SDS011;70775;50.846;3.224;2023-07-30T12:25:51;9.60;;;2.40;;
81306;SDS011;70775;50.846;3.224;2023-07-30T12:28:25;5.43;;;1.67;;
81306;SDS011;70775;50.846;3.224;2023-07-30T12:30:51;6.72;;;2.10;;
81306;SDS011;70775;50.846;3.224;2023-07-30T12:33:17;6.97;;;1.85;;
81306;SDS011;70775;50.846;3.224;2023-07-30T12:35:42;7.90;;;2.50;;
81306;SDS011;70775;50.846;3.224;2023-07-30T12:38:11;6.50;;;1.98;;
81306;SDS011;70775;50.846;3.224;2023-07-30T12:40:48;5.65;;;2.00;;
81306;SDS011;70775;50.846;3.224;2023-07-30T12:43:15;8.02;;;1.92;;
81306;SDS011;70775;50.846;3.224;2023-07-30T12:48:37;6.70;;;2.47;;
81306;SDS011;70775;50.846;3.224;2023-07-30T12:51:02;8.68;;;2.35;;
81306;SDS011;70775;50.846;3.224;2023-07-30T12:53:28;9.88;;;3.17;;
81306;SDS011;70775;50.846;3.224;2023-07-30T12:55:54;9.35;;;2.50;;
81306;SDS011;70775;50.846;3.224;2023-07-30T12:58:20;14.95;;;2.80;;
81306;SDS011;70775;50.846;3.224;2023-07-30T13:00:45;5.20;;;2.00;;
81306;SDS011;70775;50.846;3.224;2023-07-30T13:03:12;8.68;;;2.60;;
81306;SDS011;70775;50.846;3.224;2023-07-30T13:05:37;12.23;;;3.03;;
81306;SDS011;70775;50.846;3.224;2023-07-30T13:08:03;10.07;;;2.53;;
81306;SDS011;70775;50.846;3.224;2023-07-30T13:10:29;9.68;;;2.88;;
81306;SDS011;70775;50.846;3.224;2023-07-30T13:12:54;10.55;;;2.70;;
81306;SDS011;70775;50.846;3.224;2023-07-30T13:15:24;8.05;;;2.50;;
81306;SDS011;70775;50.846;3.224;2023-07-30T13:17:50;9.23;;;2.85;;
81306;SDS011;70775;50.846;3.224;2023-07-30T13:20:18;9.70;;;3.75;;
81306;SDS011;70775;50.846;3.224;2023-07-30T13:22:53;8.55;;;2.33;;
81306;SDS011;70775;50.846;3.224;2023-07-30T13:25:33;8.40;;;2.30;;
81306;SDS011;70775;50.846;3.224;2023-07-30T13:27:59;8.95;;;2.40;;
81306;SDS011;70775;50.846;3.224;2023-07-30T13:30:24;11.50;;;3.40;;
81306;SDS011;70775;50.846;3.224;2023-07-30T13:32:50;8.35;;;2.72;;
81306;SDS011;70775;50.846;3.224;2023-07-30T13:35:16;13.55;;;3.05;;
81306;SDS011;70775;50.846;3.224;2023-07-30T13:37:41;10.23;;;2.50;;
81306;SDS011;70775;50.846;3.224;2023-07-30T13:40:08;10.32;;;3.05;;
81306;SDS011;70775;50.846;3.224;2023-07-30T13:45:05;9.15;;;3.25;;
81306;SDS011;70775;50.846;3.224;2023-07-30T13:47:31;11.60;;;2.50;;
81306;SDS011;70775;50.846;3.224;2023-07-30T13:53:00;12.13;;;2.85;;
81306;SDS011;70775;50.846;3.224;2023-07-30T14:04:21;12.90;;;2.95;;
81306;SDS011;70775;50.846;3.224;2023-07-30T14:06:47;8.88;;;2.72;;
81306;SDS011;70775;50.846;3.224;2023-07-30T14:09:12;9.82;;;3.47;;
81306;SDS011;70775;50.846;3.224;2023-07-30T14:11:40;9.27;;;3.03;;
81306;SDS011;70775;50.846;3.224;2023-07-30T14:14:10;6.13;;;2.58;;
81306;SDS011;70775;50.846;3.224;2023-07-30T14:16:35;10.77;;;3.20;;
81306;SDS011;70775;50.846;3.224;2023-07-30T14:19:01;8.15;;;2.90;;
81306;SDS011;70775;50.846;3.224;2023-07-30T14:21:30;11.50;;;3.22;;
81306;SDS011;70775;50.846;3.224;2023-07-30T14:24:00;6.15;;;2.72;;
81306;SDS011;70775;50.846;3.224;2023-07-30T14:29:31;6.97;;;3.00;;
81306;SDS011;70775;50.846;3.224;2023-07-30T14:31:56;6.93;;;2.53;;
81306;SDS011;70775;50.846;3.224;2023-07-30T14:37:27;7.88;;;2.03;;
81306;SDS011;70775;50.846;3.224;2023-07-30T14:39:53;4.07;;;1.63;;
81306;SDS011;70775;50.846;3.224;2023-07-30T14:42:22;5.78;;;2.13;;
81306;SDS011;70775;50.846;3.224;2023-07-30T14:47:37;6.32;;;2.35;;
81306;SDS011;70775;50.846;3.224;2023-07-30T14:50:04;7.03;;;2.38;;
81306;SDS011;70775;50.846;3.224;2023-07-30T14:55:26;5.65;;;2.00;;
81306;SDS011;70775;50.846;3.224;2023-07-30T14:57:52;5.70;;;1.80;;
81306;SDS011;70775;50.846;3.224;2023-07-30T15:00:18;7.65;;;1.88;;
81306;SDS011;70775;50.846;3.224;2023-07-30T15:02:43;5.18;;;1.77;;
81306;SDS011;70775;50.846;3.224;2023-07-30T15:05:17;7.63;;;2.58;;
81306;SDS011;70775;50.846;3.224;2023-07-30T15:07:42;7.50;;;2.03;;
81306;SDS011;70775;50.846;3.224;2023-07-30T15:10:08;4.80;;;2.15;;
81306;SDS011;70775;50.846;3.224;2023-07-30T15:12:35;6.50;;;2.08;;
81306;SDS011;70775;50.846;3.224;2023-07-30T15:15:01;6.68;;;2.50;;
81306;SDS011;70775;50.846;3.224;2023-07-30T15:17:27;8.35;;;2.70;;
81306;SDS011;70775;50.846;3.224;2023-07-30T15:19:53;8.73;;;2.90;;
81306;SDS011;70775;50.846;3.224;2023-07-30T15:22:19;8.20;;;2.90;;
81306;SDS011;70775;50.846;3.224;2023-07-30T15:24:45;6.32;;;2.50;;
81306;SDS011;70775;50.846;3.224;2023-07-30T15:29:40;4.68;;;2.40;;
81306;SDS011;70775;50.846;3.224;2023-07-30T15:32:05;7.55;;;3.00;;
81306;SDS011;70775;50.846;3.224;2023-07-30T15:34:31;8.27;;;3.17;;
81306;SDS011;70775;50.846;3.224;2023-07-30T15:36:57;6.80;;;3.22;;
81306;SDS011;70775;50.846;3.224;2023-07-30T15:39:24;8.10;;;3.38;;
81306;SDS011;70775;50.846;3.224;2023-07-30T15:41:50;8.00;;;3.08;;
81306;SDS011;70775;50.846;3.224;2023-07-30T15:44:18;6.57;;;2.45;;
81306;SDS011;70775;50.846;3.224;2023-07-30T15:46:44;5.50;;;2.92;;
81306;SDS011;70775;50.846;3.224;2023-07-30T15:49:11;9.90;;;3.65;;
81306;SDS011;70775;50.846;3.224;2023-07-30T15:54:35;7.25;;;3.70;;
81306;SDS011;70775;50.846;3.224;2023-07-30T16:00:03;10.63;;;3.70;;
81306;SDS011;70775;50.846;3.224;2023-07-30T16:02:30;8.45;;;2.88;;
81306;SDS011;70775;50.846;3.224;2023-07-30T16:05:01;6.95;;;3.00;;
81306;SDS011;70775;50.846;3.224;2023-07-30T16:07:33;10.38;;;3.47;;
81306;SDS011;70775;50.846;3.224;2023-07-30T16:10:06;8.38;;;3.75;;
81306;SDS011;70775;50.846;3.224;2023-07-30T16:12:32;9.70;;;3.70;;
81306;SDS011;70775;50.846;3.224;2023-07-30T16:15:00;7.82;;;3.80;;
81306;SDS011;70775;50.846;3.224;2023-07-30T16:17:36;12.27;;;4.35;;
81306;SDS011;70775;50.846;3.224;2023-07-30T16:23:04;7.95;;;3.40;;
81306;SDS011;70775;50.846;3.224;2023-07-30T16:25:29;10.48;;;4.40;;
81306;SDS011;70775;50.846;3.224;2023-07-30T16:27:55;9.20;;;3.40;;
81306;SDS011;70775;50.846;3.224;2023-07-30T16:30:21;7.38;;;3.13;;
81306;SDS011;70775;50.846;3.224;2023-07-30T16:32:46;7.22;;;3.72;;
81306;SDS011;70775;50.846;3.224;2023-07-30T16:35:14;7.82;;;3.70;;
81306;SDS011;70775;50.846;3.224;2023-07-30T16:37:43;7.40;;;3.53;;
81306;SDS011;70775;50.846;3.224;2023-07-30T16:40:09;12.85;;;5.35;;
81306;SDS011;70775;50.846;3.224;2023-07-30T16:42:36;9.02;;;4.05;;
81306;SDS011;70775;50.846;3.224;2023-07-30T16:45:13;8.82;;;3.75;;
81306;SDS011;70775;50.846;3.224;2023-07-30T16:47:39;9.60;;;3.95;;
81306;SDS011;70775;50.846;3.224;2023-07-30T16:50:04;10.18;;;4.25;;
81306;SDS011;70775;50.846;3.224;2023-07-30T17:02:03;12.77;;;5.18;;
81306;SDS011;70775;50.846;3.224;2023-07-30T17:07:37;12.52;;;4.82;;
81306;SDS011;70775;50.846;3.224;2023-07-30T17:10:03;12.00;;;4.57;;
81306;SDS011;70775;50.846;3.224;2023-07-30T17:12:29;12.52;;;4.85;;
81306;SDS011;70775;50.846;3.224;2023-07-30T17:14:54;8.35;;;4.25;;
81306;SDS011;70775;50.846;3.224;2023-07-30T17:17:22;9.57;;;4.30;;
81306;SDS011;70775;50.846;3.224;2023-07-30T17:19:51;14.23;;;4.95;;
81306;SDS011;70775;50.846;3.224;2023-07-30T17:22:17;15.48;;;5.18;;
81306;SDS011;70775;50.846;3.224;2023-07-30T17:24:42;13.73;;;5.20;;
81306;SDS011;70775;50.846;3.224;2023-07-30T17:27:08;10.45;;;4.55;;
81306;SDS011;70775;50.846;3.224;2023-07-30T17:29:35;14.90;;;4.75;;
81306;SDS011;70775;50.846;3.224;2023-07-30T17:32:00;12.63;;;5.20;;
81306;SDS011;70775;50.846;3.224;2023-07-30T17:34:26;17.38;;;5.07;;
81306;SDS011;70775;50.846;3.224;2023-07-30T17:36:52;15.05;;;5.88;;
81306;SDS011;70775;50.846;3.224;2023-07-30T17:39:17;11.40;;;5.03;;
81306;SDS011;70775;50.846;3.224;2023-07-30T17:41:43;21.35;;;6.57;;
81306;SDS011;70775;50.846;3.224;2023-07-30T17:44:08;12.75;;;4.78;;
81306;SDS011;70775;50.846;3.224;2023-07-30T17:46:35;14.38;;;5.53;;
81306;SDS011;70775;50.846;3.224;2023-07-30T17:49:01;15.50;;;5.45;;
81306;SDS011;70775;50.846;3.224;2023-07-30T17:53:57;10.50;;;4.97;;
81306;SDS011;70775;50.846;3.224;2023-07-30T17:56:24;15.20;;;6.07;;